createdAt,value
2022-11-20T00:02:18.359Z,98020.21
2022-11-20T00:07:25.075Z,98009.98
2022-11-20T00:12:32.431Z,98006.43
2022-11-20T00:17:39.379Z,98012.52
2022-11-20T00:22:46.181Z,98016.22
2022-11-20T00:27:53.251Z,98014.54
2022-11-20T00:33:01.157Z,98018.39
2022-11-20T00:38:08.458Z,98014.08
2022-11-20T00:43:15.569Z,98009.24
2022-11-20T00:48:22.855Z,98009.27
2022-11-20T00:53:29.902Z,98009.67
2022-11-20T00:58:38.528Z,98000.84
2022-11-20T01:03:46.922Z,97997.77
2022-11-20T01:08:55.153Z,97992.08
2022-11-20T01:14:02.565Z,97983.23
2022-11-20T01:19:10.047Z,97984.17
2022-11-20T01:24:17.577Z,97981.71
2022-11-20T01:29:25.486Z,97984.93
2022-11-20T01:34:32.709Z,97976.08
2022-11-20T01:39:39.630Z,97971.77
2022-11-20T01:44:50.194Z,97967.84
2022-11-20T01:50:00.090Z,97962.73
2022-11-20T01:55:09.320Z,97956.67
2022-11-20T02:00:18.276Z,97949.65
2022-11-20T02:05:26.897Z,97950.70
2022-11-20T02:10:33.746Z,97952.08
2022-11-20T02:15:40.979Z,97951.16
2022-11-20T02:20:49.912Z,97958.48
2022-11-20T02:25:58.624Z,97971.36
2022-11-20T02:31:05.826Z,97973.75
2022-11-20T02:36:14.451Z,97977.09
2022-11-20T02:41:21.848Z,97981.42
2022-11-20T02:46:28.710Z,97977.04
2022-11-20T02:51:35.621Z,97982.38
2022-11-20T02:56:42.608Z,97980.71
2022-11-20T03:01:49.498Z,97977.34
2022-11-20T03:06:56.837Z,97979.47
2022-11-20T03:12:04.264Z,97979.55
2022-11-20T03:17:11.721Z,97983.95
2022-11-20T03:22:18.928Z,97980.53
2022-11-20T03:27:26.011Z,97973.70
2022-11-20T03:32:33.067Z,97970.07
2022-11-20T03:37:40.121Z,97977.90
2022-11-20T03:42:50.195Z,97977.21
2022-11-20T03:47:57.378Z,97970.39
2022-11-20T03:53:04.787Z,97968.05
2022-11-20T03:58:11.758Z,97972.52
2022-11-20T04:03:18.748Z,97972.03
2022-11-20T04:08:25.558Z,97974.30
2022-11-20T04:13:32.728Z,97973.95
2022-11-20T04:18:39.891Z,97973.56
2022-11-20T04:23:46.874Z,97976.44
2022-11-20T04:28:53.948Z,97965.77
2022-11-20T04:34:03.923Z,97953.63
2022-11-20T04:39:15.139Z,97946.96
2022-11-20T04:44:22.312Z,97942.74
2022-11-20T04:49:29.270Z,97939.06
2022-11-20T04:54:36.091Z,97930.66
2022-11-20T04:59:43.000Z,97925.41
2022-11-20T05:04:49.998Z,97919.98
2022-11-20T05:09:56.897Z,97915.84
2022-11-20T05:15:03.808Z,97912.19
2022-11-20T05:20:12.032Z,97907.27
2022-11-20T05:25:19.131Z,97896.67
2022-11-20T05:30:26.128Z,97890.75
2022-11-20T05:35:33.048Z,97893.63
2022-11-20T05:40:39.908Z,97892.23
2022-11-20T05:45:54.828Z,97893.48
2022-11-20T05:51:02.408Z,97894.20
2022-11-20T05:56:11.307Z,97899.66
2022-11-20T06:01:19.479Z,97904.59
2022-11-20T06:06:27.379Z,97896.91
2022-11-20T06:11:34.690Z,97901.02
2022-11-20T06:16:41.878Z,97896.98
2022-11-20T06:21:50.248Z,97900.39
2022-11-20T06:26:57.019Z,97899.33
2022-11-20T06:32:03.948Z,97903.90
2022-11-20T06:37:10.827Z,97902.16
2022-11-20T06:42:17.669Z,97906.04
2022-11-20T06:47:24.618Z,97900.83
2022-11-20T06:52:31.428Z,97894.73
2022-11-20T06:57:38.427Z,97890.48
2022-11-20T07:02:45.357Z,97882.89
2022-11-20T07:07:52.392Z,97873.48
2022-11-20T07:12:59.671Z,97874.61
2022-11-20T07:18:07.049Z,97871.17
2022-11-20T07:23:14.072Z,97871.47
2022-11-20T07:28:21.593Z,97868.34
2022-11-20T07:33:29.095Z,97872.43
2022-11-20T07:38:35.940Z,97871.20
2022-11-20T07:43:43.028Z,97869.67
2022-11-20T07:48:49.967Z,97865.61
2022-11-20T07:53:56.837Z,97869.39
2022-11-20T07:59:03.760Z,97871.30
2022-11-20T08:04:10.847Z,97871.93
2022-11-20T08:09:17.922Z,97880.14
2022-11-20T08:14:25.102Z,97878.56
2022-11-20T08:19:32.009Z,97879.66
2022-11-20T08:24:39.170Z,97888.72
2022-11-20T08:29:46.433Z,97890.44
2022-11-20T08:34:53.972Z,97892.08
2022-11-20T08:40:00.908Z,97891.79
2022-11-20T08:45:08.608Z,97895.40
2022-11-20T08:50:16.478Z,97901.85
2022-11-20T08:55:23.386Z,97908.02
2022-11-20T09:00:30.542Z,97904.67
2022-11-20T09:05:37.677Z,97902.59
2022-11-20T09:10:45.189Z,97904.35
2022-11-20T09:15:55.547Z,97898.48
2022-11-20T09:21:03.073Z,97894.02
2022-11-20T09:26:11.895Z,97886.11
2022-11-20T09:31:23.267Z,97888.02
2022-11-20T09:36:30.277Z,97883.97
2022-11-20T09:41:51.793Z,97878.02
2022-11-20T09:47:01.949Z,97879.64
2022-11-20T09:52:15.788Z,97875.42
2022-11-20T09:57:24.637Z,97878.65
2022-11-20T10:02:33.817Z,97863.39
2022-11-20T10:07:43.996Z,97859.34
2022-11-20T10:13:01.578Z,97859.19
2022-11-20T10:18:19.707Z,97854.52
2022-11-20T10:23:32.987Z,97847.52
2022-11-20T10:28:57.127Z,97839.45
2022-11-20T10:34:12.666Z,97835.21
2022-11-20T10:39:24.092Z,97829.66
2022-11-20T10:45:04.183Z,97826.00
2022-11-20T10:50:22.279Z,97813.20
2022-11-20T10:55:33.099Z,97806.80
2022-11-20T11:00:40.610Z,97806.59
2022-11-20T11:05:52.031Z,97800.31
2022-11-20T11:11:00.147Z,97805.13
2022-11-20T11:16:07.456Z,97808.35
2022-11-20T11:21:14.519Z,97803.89
2022-11-20T11:26:23.743Z,97800.36
2022-11-20T11:31:31.708Z,97795.41
2022-11-20T11:36:38.888Z,97796.36
2022-11-20T11:41:46.225Z,97798.79
2022-11-20T11:46:56.101Z,97792.45
2022-11-20T11:52:11.530Z,97785.05
2022-11-20T11:57:23.963Z,97768.80
2022-11-20T12:02:35.996Z,97751.70
2022-11-20T12:07:47.063Z,97752.66
2022-11-20T12:12:57.414Z,97754.34
2022-11-20T12:18:04.965Z,97762.01
2022-11-20T12:23:18.138Z,97758.42
2022-11-20T12:28:33.557Z,97757.33
2022-11-20T12:33:50.527Z,97752.07
2022-11-20T12:39:12.168Z,97734.69
2022-11-20T12:44:46.402Z,97716.32
2022-11-20T12:49:59.848Z,97704.95
2022-11-20T12:55:25.051Z,97696.92
2022-11-20T13:00:34.807Z,97693.95
2022-11-20T13:05:49.014Z,97693.67
2022-11-20T13:10:59.378Z,97689.16
2022-11-20T13:16:13.417Z,97686.42
2022-11-20T13:21:22.871Z,97680.26
2022-11-20T13:26:30.206Z,97682.72
2022-11-20T13:31:38.318Z,97683.92
2022-11-20T13:36:53.972Z,97676.95
2022-11-20T13:42:01.738Z,97669.23
2022-11-20T13:47:23.102Z,97664.42
2022-11-20T13:52:43.311Z,97662.67
2022-11-20T13:58:12.151Z,97662.86
2022-11-20T14:03:43.760Z,97656.23
2022-11-20T14:08:49.497Z,97657.19
2022-11-20T14:14:00.447Z,97653.78
2022-11-20T14:24:39.756Z,97647.58
2022-11-20T14:29:47.408Z,97639.52
2022-11-20T14:34:54.168Z,97640.51
2022-11-20T14:40:02.168Z,97637.08
2022-11-20T14:45:14.188Z,97633.76
2022-11-20T14:50:24.465Z,97640.43
2022-11-20T14:55:32.879Z,97638.95
2022-11-20T15:00:40.086Z,97631.06
2022-11-20T15:05:51.431Z,97631.94
2022-11-20T15:10:58.838Z,97623.98
2022-11-20T15:16:07.028Z,97617.50
2022-11-20T15:21:14.619Z,97609.42
2022-11-20T15:26:24.518Z,97611.86
2022-11-20T15:31:31.738Z,97604.69
2022-11-20T15:36:39.089Z,97608.02
2022-11-20T15:41:46.092Z,97606.16
2022-11-20T15:46:52.952Z,97607.73
2022-11-20T15:51:59.926Z,97607.75
2022-11-20T15:57:07.682Z,97609.49
2022-11-20T16:02:19.120Z,97607.71
2022-11-20T16:07:26.579Z,97609.45
2022-11-20T16:12:51.052Z,97609.09
2022-11-20T16:17:57.917Z,97602.14
2022-11-20T16:23:05.009Z,97604.02
2022-11-20T16:28:17.447Z,97602.95
2022-11-20T16:33:26.057Z,97607.59
2022-11-20T16:38:33.359Z,97602.21
2022-11-20T16:43:43.987Z,97596.29
2022-11-20T16:48:54.689Z,97600.13
2022-11-20T16:54:03.638Z,97595.60
2022-11-20T16:59:11.228Z,97588.64
2022-11-20T17:04:18.089Z,97591.23
2022-11-20T17:09:25.229Z,97595.27
2022-11-20T17:14:32.209Z,97602.96
2022-11-20T17:19:39.183Z,97602.81
2022-11-20T17:24:46.198Z,97599.80
2022-11-20T17:29:55.238Z,97591.02
2022-11-20T17:35:02.227Z,97584.86
2022-11-20T17:40:09.868Z,97580.38
2022-11-20T17:45:16.669Z,97579.01
2022-11-20T17:50:23.480Z,97577.85
2022-11-20T17:55:55.690Z,97570.27
2022-11-20T18:01:08.165Z,97563.11
2022-11-20T18:06:16.608Z,97553.05
2022-11-20T18:11:24.648Z,97550.34
2022-11-20T18:16:33.677Z,97546.27
2022-11-20T18:21:40.702Z,97549.21
2022-11-20T18:26:47.950Z,97557.30
2022-11-20T18:31:54.929Z,97554.02
2022-11-20T18:37:02.291Z,97560.42
2022-11-20T18:42:26.856Z,97555.40
2022-11-20T18:47:36.496Z,97560.91
2022-11-20T18:52:44.946Z,97562.25
2022-11-20T18:57:51.936Z,97562.48
2022-11-20T19:02:59.243Z,97560.15
2022-11-20T19:08:06.247Z,97557.51
2022-11-20T19:13:13.352Z,97556.90
2022-11-20T19:18:20.788Z,97546.91
2022-11-20T19:23:28.051Z,97544.59
2022-11-20T19:28:35.632Z,97549.52
2022-11-20T19:33:43.438Z,97562.15
2022-11-20T19:38:51.438Z,97566.80
2022-11-20T19:43:59.659Z,97562.66
2022-11-20T19:49:07.137Z,97564.88
2022-11-20T19:54:14.568Z,97559.35
2022-11-20T19:59:21.848Z,97561.09
2022-11-20T20:04:29.443Z,97558.52
2022-11-20T20:09:36.512Z,97551.73
2022-11-20T20:14:43.559Z,97542.19
2022-11-20T20:19:51.051Z,97543.98
2022-11-20T20:24:58.328Z,97545.50
2022-11-20T20:30:05.226Z,97551.45
2022-11-20T20:35:12.556Z,97551.39
2022-11-20T20:40:22.772Z,97552.98
2022-11-20T20:45:29.718Z,97550.41
2022-11-20T20:50:36.567Z,97547.30
2022-11-20T20:55:43.407Z,97544.34
2022-11-20T21:00:50.606Z,97547.34
2022-11-20T21:05:58.841Z,97551.63
2022-11-20T21:11:06.937Z,97556.98
2022-11-20T21:16:14.350Z,97557.93
2022-11-20T21:21:39.691Z,97553.55
2022-11-20T21:26:46.509Z,97552.39
2022-11-20T21:31:54.540Z,97552.02
2022-11-20T21:37:01.751Z,97553.98
2022-11-20T21:42:08.602Z,97561.13
2022-11-20T21:47:15.939Z,97570.45
2022-11-20T21:52:22.859Z,97569.37
2022-11-20T21:57:29.806Z,97566.27
2022-11-20T22:02:36.778Z,97559.23
2022-11-20T22:07:46.728Z,97554.61
2022-11-20T22:13:15.139Z,97556.66
2022-11-20T22:18:23.030Z,97570.98
2022-11-20T22:23:30.015Z,97578.05
2022-11-20T22:28:37.130Z,97574.33
2022-11-20T22:33:43.949Z,97571.05
2022-11-20T22:38:51.007Z,97576.39
2022-11-20T22:43:58.678Z,97564.59
2022-11-20T22:49:06.468Z,97563.90
2022-11-20T22:54:14.488Z,97570.02
2022-11-20T22:59:21.767Z,97570.89
2022-11-20T23:04:28.821Z,97571.98
2022-11-20T23:09:36.198Z,97568.10
2022-11-20T23:14:43.881Z,97581.04
2022-11-20T23:19:50.788Z,97592.31
2022-11-20T23:24:57.705Z,97589.89
2022-11-20T23:30:04.751Z,97589.76
2022-11-20T23:35:11.991Z,97587.11
2022-11-20T23:40:19.217Z,97579.21
2022-11-20T23:45:26.157Z,97576.16
2022-11-20T23:50:32.906Z,97573.67
2022-11-20T23:55:40.018Z,97571.11
